sensor_id;sensor_type;location;lat;lon;timestamp;P1;durP1;ratioP1;P2;durP2;ratioP2
2338;SDS011;1180;51.438;6.978;2022-11-20T00:01:43;22.27;;;16.30;;
2338;SDS011;1180;51.438;6.978;2022-11-20T00:04:10;23.57;;;15.50;;
2338;SDS011;1180;51.438;6.978;2022-11-20T00:06:36;18.58;;;14.95;;
2338;SDS011;1180;51.438;6.978;2022-11-20T00:09:01;20.47;;;15.17;;
2338;SDS011;1180;51.438;6.978;2022-11-20T00:11:27;15.97;;;14.13;;
2338;SDS011;1180;51.438;6.978;2022-11-20T00:13:55;20.75;;;15.13;;
2338;SDS011;1180;51.438;6.978;2022-11-20T00:16:23;17.83;;;13.57;;
2338;SDS011;1180;51.438;6.978;2022-11-20T00:18:49;18.08;;;15.60;;
2338;SDS011;1180;51.438;6.978;2022-11-20T00:21:20;23.67;;;16.13;;
2338;SDS011;1180;51.438;6.978;2022-11-20T00:23:50;21.60;;;14.25;;
2338;SDS011;1180;51.438;6.978;2022-11-20T00:26:17;23.50;;;15.27;;
2338;SDS011;1180;51.438;6.978;2022-11-20T00:28:44;24.00;;;15.20;;
2338;SDS011;1180;51.438;6.978;2022-11-20T00:31:15;18.98;;;14.40;;
2338;SDS011;1180;51.438;6.978;2022-11-20T00:33:40;21.67;;;15.27;;
2338;SDS011;1180;51.438;6.978;2022-11-20T00:36:14;18.55;;;13.98;;
2338;SDS011;1180;51.438;6.978;2022-11-20T00:38:41;18.52;;;13.82;;
2338;SDS011;1180;51.438;6.978;2022-11-20T00:41:08;23.15;;;14.77;;
2338;SDS011;1180;51.438;6.978;2022-11-20T00:43:35;23.67;;;14.98;;
2338;SDS011;1180;51.438;6.978;2022-11-20T00:46:01;19.70;;;13.27;;
2338;SDS011;1180;51.438;6.978;2022-11-20T00:48:34;22.63;;;15.70;;
2338;SDS011;1180;51.438;6.978;2022-11-20T00:50:59;21.00;;;13.63;;
2338;SDS011;1180;51.438;6.978;2022-11-20T00:53:25;18.77;;;14.53;;
2338;SDS011;1180;51.438;6.978;2022-11-20T00:55:55;20.00;;;15.23;;
2338;SDS011;1180;51.438;6.978;2022-11-20T00:58:21;19.83;;;14.65;;
2338;SDS011;1180;51.438;6.978;2022-11-20T01:00:47;25.30;;;16.63;;
2338;SDS011;1180;51.438;6.978;2022-11-20T01:03:14;21.15;;;16.08;;
2338;SDS011;1180;51.438;6.978;2022-11-20T01:05:40;24.30;;;14.63;;
2338;SDS011;1180;51.438;6.978;2022-11-20T01:08:05;21.17;;;15.27;;
2338;SDS011;1180;51.438;6.978;2022-11-20T01:10:30;25.53;;;16.27;;
2338;SDS011;1180;51.438;6.978;2022-11-20T01:12:55;24.07;;;16.40;;
2338;SDS011;1180;51.438;6.978;2022-11-20T01:15:40;23.75;;;16.17;;
2338;SDS011;1180;51.438;6.978;2022-11-20T01:18:06;21.38;;;16.02;;
2338;SDS011;1180;51.438;6.978;2022-11-20T01:20:35;24.50;;;17.67;;
2338;SDS011;1180;51.438;6.978;2022-11-20T01:23:01;22.83;;;16.63;;
2338;SDS011;1180;51.438;6.978;2022-11-20T01:25:27;20.98;;;16.40;;
2338;SDS011;1180;51.438;6.978;2022-11-20T01:27:52;18.37;;;13.97;;
2338;SDS011;1180;51.438;6.978;2022-11-20T01:30:18;18.73;;;14.30;;
2338;SDS011;1180;51.438;6.978;2022-11-20T01:32:43;24.60;;;16.20;;
2338;SDS011;1180;51.438;6.978;2022-11-20T01:35:09;24.10;;;15.13;;
2338;SDS011;1180;51.438;6.978;2022-11-20T01:37:35;17.83;;;13.98;;
2338;SDS011;1180;51.438;6.978;2022-11-20T01:40:00;20.40;;;15.57;;
2338;SDS011;1180;51.438;6.978;2022-11-20T01:42:26;19.53;;;14.87;;
2338;SDS011;1180;51.438;6.978;2022-11-20T01:51:20;23.50;;;17.20;;
2338;SDS011;1180;51.438;6.978;2022-11-20T01:54:01;22.45;;;16.08;;
2338;SDS011;1180;51.438;6.978;2022-11-20T01:56:31;22.33;;;16.20;;
2338;SDS011;1180;51.438;6.978;2022-11-20T01:59:01;20.13;;;14.40;;
2338;SDS011;1180;51.438;6.978;2022-11-20T02:01:28;46.30;;;16.23;;
2338;SDS011;1180;51.438;6.978;2022-11-20T02:03:54;20.30;;;14.43;;
2338;SDS011;1180;51.438;6.978;2022-11-20T02:06:24;21.00;;;15.13;;
2338;SDS011;1180;51.438;6.978;2022-11-20T02:08:52;23.10;;;15.90;;
2338;SDS011;1180;51.438;6.978;2022-11-20T02:11:19;19.90;;;16.10;;
2338;SDS011;1180;51.438;6.978;2022-11-20T02:13:45;20.03;;;14.37;;
2338;SDS011;1180;51.438;6.978;2022-11-20T02:16:12;21.52;;;14.82;;
2338;SDS011;1180;51.438;6.978;2022-11-20T02:18:44;20.80;;;14.95;;
2338;SDS011;1180;51.438;6.978;2022-11-20T02:24:19;20.98;;;15.05;;
2338;SDS011;1180;51.438;6.978;2022-11-20T02:30:04;23.63;;;17.52;;
2338;SDS011;1180;51.438;6.978;2022-11-20T02:32:22;23.38;;;15.70;;
2338;SDS011;1180;51.438;6.978;2022-11-20T02:34:52;26.13;;;18.13;;
2338;SDS011;1180;51.438;6.978;2022-11-20T02:37:18;22.00;;;15.52;;
2338;SDS011;1180;51.438;6.978;2022-11-20T02:39:48;26.25;;;17.35;;
2338;SDS011;1180;51.438;6.978;2022-11-20T02:42:15;22.88;;;17.40;;
2338;SDS011;1180;51.438;6.978;2022-11-20T02:44:40;22.57;;;16.83;;
2338;SDS011;1180;51.438;6.978;2022-11-20T02:47:06;25.00;;;18.30;;
2338;SDS011;1180;51.438;6.978;2022-11-20T02:49:31;25.50;;;18.00;;
2338;SDS011;1180;51.438;6.978;2022-11-20T02:51:57;24.73;;;15.80;;
2338;SDS011;1180;51.438;6.978;2022-11-20T02:54:22;22.17;;;16.43;;
2338;SDS011;1180;51.438;6.978;2022-11-20T02:56:48;17.20;;;14.17;;
2338;SDS011;1180;51.438;6.978;2022-11-20T02:59:13;20.77;;;14.30;;
2338;SDS011;1180;51.438;6.978;2022-11-20T03:01:38;19.77;;;14.23;;
2338;SDS011;1180;51.438;6.978;2022-11-20T03:04:04;22.70;;;16.10;;
2338;SDS011;1180;51.438;6.978;2022-11-20T03:06:29;20.50;;;14.87;;
2338;SDS011;1180;51.438;6.978;2022-11-20T03:08:55;21.63;;;15.00;;
2338;SDS011;1180;51.438;6.978;2022-11-20T03:11:20;20.00;;;14.80;;
2338;SDS011;1180;51.438;6.978;2022-11-20T03:13:45;18.80;;;14.17;;
2338;SDS011;1180;51.438;6.978;2022-11-20T03:16:15;25.40;;;16.07;;
2338;SDS011;1180;51.438;6.978;2022-11-20T03:18:42;20.20;;;15.27;;
2338;SDS011;1180;51.438;6.978;2022-11-20T03:21:08;21.90;;;14.43;;
2338;SDS011;1180;51.438;6.978;2022-11-20T03:23:35;19.90;;;15.43;;
2338;SDS011;1180;51.438;6.978;2022-11-20T03:28:38;23.45;;;16.13;;
2338;SDS011;1180;51.438;6.978;2022-11-20T03:31:12;25.45;;;16.40;;
2338;SDS011;1180;51.438;6.978;2022-11-20T03:33:39;21.48;;;15.90;;
2338;SDS011;1180;51.438;6.978;2022-11-20T03:36:07;23.25;;;15.57;;
2338;SDS011;1180;51.438;6.978;2022-11-20T03:38:34;22.63;;;16.75;;
2338;SDS011;1180;51.438;6.978;2022-11-20T03:41:01;25.10;;;17.13;;
2338;SDS011;1180;51.438;6.978;2022-11-20T03:43:28;22.77;;;15.90;;
2338;SDS011;1180;51.438;6.978;2022-11-20T03:45:54;20.50;;;14.57;;
2338;SDS011;1180;51.438;6.978;2022-11-20T03:48:19;20.03;;;14.97;;
2338;SDS011;1180;51.438;6.978;2022-11-20T03:50:45;24.33;;;17.37;;
2338;SDS011;1180;51.438;6.978;2022-11-20T03:53:12;22.80;;;16.83;;
2338;SDS011;1180;51.438;6.978;2022-11-20T03:55:38;26.00;;;19.60;;
2338;SDS011;1180;51.438;6.978;2022-11-20T03:58:03;23.43;;;17.00;;
2338;SDS011;1180;51.438;6.978;2022-11-20T04:00:29;27.33;;;18.20;;
2338;SDS011;1180;51.438;6.978;2022-11-20T04:02:57;24.03;;;18.43;;
2338;SDS011;1180;51.438;6.978;2022-11-20T04:05:23;25.08;;;18.88;;
2338;SDS011;1180;51.438;6.978;2022-11-20T04:07:48;24.77;;;18.50;;
2338;SDS011;1180;51.438;6.978;2022-11-20T04:10:14;21.00;;;16.50;;
2338;SDS011;1180;51.438;6.978;2022-11-20T04:12:39;22.30;;;16.90;;
2338;SDS011;1180;51.438;6.978;2022-11-20T04:15:05;26.43;;;17.90;;
2338;SDS011;1180;51.438;6.978;2022-11-20T04:17:30;27.73;;;18.67;;
2338;SDS011;1180;51.438;6.978;2022-11-20T04:19:55;21.17;;;16.30;;
2338;SDS011;1180;51.438;6.978;2022-11-20T04:22:21;24.10;;;18.03;;
2338;SDS011;1180;51.438;6.978;2022-11-20T04:24:46;25.77;;;17.47;;
2338;SDS011;1180;51.438;6.978;2022-11-20T04:27:11;22.10;;;16.37;;
2338;SDS011;1180;51.438;6.978;2022-11-20T04:29:36;20.20;;;16.97;;
2338;SDS011;1180;51.438;6.978;2022-11-20T04:32:02;24.53;;;17.73;;
2338;SDS011;1180;51.438;6.978;2022-11-20T04:34:27;22.90;;;17.87;;
2338;SDS011;1180;51.438;6.978;2022-11-20T04:36:52;22.70;;;17.03;;
2338;SDS011;1180;51.438;6.978;2022-11-20T04:39:18;25.70;;;19.33;;
2338;SDS011;1180;51.438;6.978;2022-11-20T04:41:43;22.70;;;16.70;;
2338;SDS011;1180;51.438;6.978;2022-11-20T04:44:08;25.40;;;17.50;;
2338;SDS011;1180;51.438;6.978;2022-11-20T04:46:35;20.90;;;15.73;;
2338;SDS011;1180;51.438;6.978;2022-11-20T04:49:03;21.73;;;16.05;;
2338;SDS011;1180;51.438;6.978;2022-11-20T04:51:29;20.25;;;16.08;;
2338;SDS011;1180;51.438;6.978;2022-11-20T04:53:55;17.80;;;14.90;;
2338;SDS011;1180;51.438;6.978;2022-11-20T04:56:20;17.77;;;14.63;;
2338;SDS011;1180;51.438;6.978;2022-11-20T04:58:45;17.73;;;13.93;;
2338;SDS011;1180;51.438;6.978;2022-11-20T05:01:12;20.77;;;15.03;;
2338;SDS011;1180;51.438;6.978;2022-11-20T05:03:39;23.65;;;17.25;;
2338;SDS011;1180;51.438;6.978;2022-11-20T05:06:06;21.95;;;16.40;;
2338;SDS011;1180;51.438;6.978;2022-11-20T05:08:32;20.95;;;16.08;;
2338;SDS011;1180;51.438;6.978;2022-11-20T05:11:02;19.80;;;15.73;;
2338;SDS011;1180;51.438;6.978;2022-11-20T05:13:32;21.30;;;16.38;;
2338;SDS011;1180;51.438;6.978;2022-11-20T05:16:06;21.13;;;15.30;;
2338;SDS011;1180;51.438;6.978;2022-11-20T05:18:33;17.80;;;13.73;;
2338;SDS011;1180;51.438;6.978;2022-11-20T05:20:59;21.33;;;14.77;;
2338;SDS011;1180;51.438;6.978;2022-11-20T05:23:24;19.27;;;13.80;;
2338;SDS011;1180;51.438;6.978;2022-11-20T05:25:53;21.40;;;14.60;;
2338;SDS011;1180;51.438;6.978;2022-11-20T05:28:20;21.48;;;14.98;;
2338;SDS011;1180;51.438;6.978;2022-11-20T05:30:45;20.27;;;15.17;;
2338;SDS011;1180;51.438;6.978;2022-11-20T05:33:10;21.43;;;14.77;;
2338;SDS011;1180;51.438;6.978;2022-11-20T05:35:36;22.57;;;16.50;;
2338;SDS011;1180;51.438;6.978;2022-11-20T05:38:01;19.60;;;14.47;;
2338;SDS011;1180;51.438;6.978;2022-11-20T05:40:26;23.83;;;15.33;;
2338;SDS011;1180;51.438;6.978;2022-11-20T05:42:52;22.93;;;15.93;;
2338;SDS011;1180;51.438;6.978;2022-11-20T05:45:17;21.03;;;15.63;;
2338;SDS011;1180;51.438;6.978;2022-11-20T05:47:42;25.70;;;17.80;;
2338;SDS011;1180;51.438;6.978;2022-11-20T05:50:08;24.33;;;17.63;;
2338;SDS011;1180;51.438;6.978;2022-11-20T05:52:33;27.17;;;15.87;;
2338;SDS011;1180;51.438;6.978;2022-11-20T05:54:58;27.23;;;16.87;;
2338;SDS011;1180;51.438;6.978;2022-11-20T05:57:24;28.37;;;17.67;;
2338;SDS011;1180;51.438;6.978;2022-11-20T05:59:49;27.73;;;18.53;;
2338;SDS011;1180;51.438;6.978;2022-11-20T06:02:14;26.47;;;17.80;;
2338;SDS011;1180;51.438;6.978;2022-11-20T06:04:40;25.47;;;16.47;;
2338;SDS011;1180;51.438;6.978;2022-11-20T06:07:05;26.63;;;18.07;;
2338;SDS011;1180;51.438;6.978;2022-11-20T06:09:31;22.03;;;16.60;;
2338;SDS011;1180;51.438;6.978;2022-11-20T06:11:57;24.53;;;17.53;;
2338;SDS011;1180;51.438;6.978;2022-11-20T06:14:22;27.03;;;18.17;;
2338;SDS011;1180;51.438;6.978;2022-11-20T06:16:47;28.33;;;17.43;;
2338;SDS011;1180;51.438;6.978;2022-11-20T06:19:13;21.87;;;16.33;;
2338;SDS011;1180;51.438;6.978;2022-11-20T06:21:38;25.87;;;17.73;;
2338;SDS011;1180;51.438;6.978;2022-11-20T06:24:04;27.50;;;18.73;;
2338;SDS011;1180;51.438;6.978;2022-11-20T06:26:29;24.50;;;17.43;;
2338;SDS011;1180;51.438;6.978;2022-11-20T06:28:55;23.40;;;17.97;;
2338;SDS011;1180;51.438;6.978;2022-11-20T06:31:24;27.38;;;18.42;;
2338;SDS011;1180;51.438;6.978;2022-11-20T06:33:51;26.35;;;18.40;;
2338;SDS011;1180;51.438;6.978;2022-11-20T06:36:18;24.83;;;19.63;;
2338;SDS011;1180;51.438;6.978;2022-11-20T06:38:45;26.88;;;18.95;;
2338;SDS011;1180;51.438;6.978;2022-11-20T06:41:12;22.13;;;17.67;;
2338;SDS011;1180;51.438;6.978;2022-11-20T06:43:39;24.13;;;18.00;;
2338;SDS011;1180;51.438;6.978;2022-11-20T06:46:05;27.60;;;17.70;;
2338;SDS011;1180;51.438;6.978;2022-11-20T06:48:30;23.40;;;16.70;;
2338;SDS011;1180;51.438;6.978;2022-11-20T06:50:56;24.70;;;17.17;;
2338;SDS011;1180;51.438;6.978;2022-11-20T06:53:22;25.23;;;18.50;;
2338;SDS011;1180;51.438;6.978;2022-11-20T06:55:50;28.02;;;17.92;;
2338;SDS011;1180;51.438;6.978;2022-11-20T06:58:16;25.40;;;17.90;;
2338;SDS011;1180;51.438;6.978;2022-11-20T07:00:42;24.83;;;17.13;;
2338;SDS011;1180;51.438;6.978;2022-11-20T07:03:08;22.73;;;16.70;;
2338;SDS011;1180;51.438;6.978;2022-11-20T07:05:35;31.50;;;17.80;;
2338;SDS011;1180;51.438;6.978;2022-11-20T07:08:01;26.73;;;19.05;;
2338;SDS011;1180;51.438;6.978;2022-11-20T07:10:28;27.35;;;19.95;;
2338;SDS011;1180;51.438;6.978;2022-11-20T07:12:53;23.97;;;16.50;;
2338;SDS011;1180;51.438;6.978;2022-11-20T07:15:20;23.60;;;18.23;;
2338;SDS011;1180;51.438;6.978;2022-11-20T07:17:46;23.35;;;17.27;;
2338;SDS011;1180;51.438;6.978;2022-11-20T07:20:12;25.80;;;18.50;;
2338;SDS011;1180;51.438;6.978;2022-11-20T07:22:38;32.45;;;20.02;;
2338;SDS011;1180;51.438;6.978;2022-11-20T07:25:05;27.55;;;18.33;;
2338;SDS011;1180;51.438;6.978;2022-11-20T07:27:31;29.88;;;20.15;;
2338;SDS011;1180;51.438;6.978;2022-11-20T07:29:57;21.90;;;16.13;;
2338;SDS011;1180;51.438;6.978;2022-11-20T07:32:23;26.43;;;19.60;;
2338;SDS011;1180;51.438;6.978;2022-11-20T07:34:48;29.50;;;19.53;;
2338;SDS011;1180;51.438;6.978;2022-11-20T07:37:14;25.57;;;19.07;;
2338;SDS011;1180;51.438;6.978;2022-11-20T07:39:40;21.83;;;18.38;;
2338;SDS011;1180;51.438;6.978;2022-11-20T07:42:06;23.80;;;17.70;;
2338;SDS011;1180;51.438;6.978;2022-11-20T07:44:32;24.25;;;19.38;;
2338;SDS011;1180;51.438;6.978;2022-11-20T07:46:57;24.27;;;17.87;;
2338;SDS011;1180;51.438;6.978;2022-11-20T07:49:23;28.20;;;18.40;;
2338;SDS011;1180;51.438;6.978;2022-11-20T07:51:51;23.40;;;15.47;;
2338;SDS011;1180;51.438;6.978;2022-11-20T07:54:20;24.75;;;17.88;;
2338;SDS011;1180;51.438;6.978;2022-11-20T07:56:46;23.90;;;17.67;;
2338;SDS011;1180;51.438;6.978;2022-11-20T07:59:12;25.83;;;17.60;;
2338;SDS011;1180;51.438;6.978;2022-11-20T08:01:38;24.07;;;15.87;;
2338;SDS011;1180;51.438;6.978;2022-11-20T08:04:04;22.35;;;15.40;;
2338;SDS011;1180;51.438;6.978;2022-11-20T08:06:29;24.90;;;16.77;;
2338;SDS011;1180;51.438;6.978;2022-11-20T08:08:54;25.70;;;17.90;;
2338;SDS011;1180;51.438;6.978;2022-11-20T08:11:20;24.10;;;17.30;;
2338;SDS011;1180;51.438;6.978;2022-11-20T08:14:04;23.80;;;15.80;;
2338;SDS011;1180;51.438;6.978;2022-11-20T08:16:43;22.33;;;15.68;;
2338;SDS011;1180;51.438;6.978;2022-11-20T08:19:10;25.33;;;17.15;;
2338;SDS011;1180;51.438;6.978;2022-11-20T08:21:36;25.60;;;15.40;;
2338;SDS011;1180;51.438;6.978;2022-11-20T08:24:01;21.40;;;16.33;;
2338;SDS011;1180;51.438;6.978;2022-11-20T08:26:27;23.17;;;16.80;;
2338;SDS011;1180;51.438;6.978;2022-11-20T08:28:53;22.00;;;15.53;;
2338;SDS011;1180;51.438;6.978;2022-11-20T08:31:19;22.90;;;16.10;;
2338;SDS011;1180;51.438;6.978;2022-11-20T08:33:46;21.98;;;15.80;;
2338;SDS011;1180;51.438;6.978;2022-11-20T08:36:12;18.95;;;13.85;;
2338;SDS011;1180;51.438;6.978;2022-11-20T08:38:38;20.83;;;15.73;;
2338;SDS011;1180;51.438;6.978;2022-11-20T08:41:04;18.07;;;14.63;;
2338;SDS011;1180;51.438;6.978;2022-11-20T08:43:49;22.30;;;14.85;;
2338;SDS011;1180;51.438;6.978;2022-11-20T08:46:37;19.50;;;14.02;;
2338;SDS011;1180;51.438;6.978;2022-11-20T08:49:10;18.42;;;14.90;;
2338;SDS011;1180;51.438;6.978;2022-11-20T08:51:37;18.92;;;14.77;;
2338;SDS011;1180;51.438;6.978;2022-11-20T08:54:03;19.35;;;13.77;;
2338;SDS011;1180;51.438;6.978;2022-11-20T08:56:29;18.23;;;11.25;;
2338;SDS011;1180;51.438;6.978;2022-11-20T08:58:55;18.13;;;12.40;;
2338;SDS011;1180;51.438;6.978;2022-11-20T09:01:21;17.57;;;13.30;;
2338;SDS011;1180;51.438;6.978;2022-11-20T09:03:48;17.42;;;13.38;;
2338;SDS011;1180;51.438;6.978;2022-11-20T09:06:13;15.30;;;11.27;;
2338;SDS011;1180;51.438;6.978;2022-11-20T09:08:39;20.17;;;13.53;;
2338;SDS011;1180;51.438;6.978;2022-11-20T09:11:05;19.37;;;14.33;;
2338;SDS011;1180;51.438;6.978;2022-11-20T09:13:31;16.15;;;12.63;;
2338;SDS011;1180;51.438;6.978;2022-11-20T09:15:59;20.83;;;13.90;;
2338;SDS011;1180;51.438;6.978;2022-11-20T09:18:27;16.67;;;11.20;;
2338;SDS011;1180;51.438;6.978;2022-11-20T09:21:00;14.70;;;11.38;;
2338;SDS011;1180;51.438;6.978;2022-11-20T09:23:27;17.73;;;12.10;;
2338;SDS011;1180;51.438;6.978;2022-11-20T09:25:56;14.00;;;10.90;;
2338;SDS011;1180;51.438;6.978;2022-11-20T09:28:24;17.13;;;12.70;;
2338;SDS011;1180;51.438;6.978;2022-11-20T09:30:50;17.08;;;12.70;;
2338;SDS011;1180;51.438;6.978;2022-11-20T09:33:15;15.90;;;11.80;;
2338;SDS011;1180;51.438;6.978;2022-11-20T09:35:41;13.43;;;11.63;;
2338;SDS011;1180;51.438;6.978;2022-11-20T09:38:08;17.83;;;14.05;;
2338;SDS011;1180;51.438;6.978;2022-11-20T09:40:35;18.35;;;12.32;;
2338;SDS011;1180;51.438;6.978;2022-11-20T09:51:15;19.55;;;13.43;;
2338;SDS011;1180;51.438;6.978;2022-11-20T09:56:37;15.20;;;10.95;;
2338;SDS011;1180;51.438;6.978;2022-11-20T09:59:06;21.27;;;13.50;;
2338;SDS011;1180;51.438;6.978;2022-11-20T10:01:39;21.00;;;14.67;;
2338;SDS011;1180;51.438;6.978;2022-11-20T10:09:29;21.73;;;15.02;;
2338;SDS011;1180;51.438;6.978;2022-11-20T10:17:52;16.33;;;11.03;;
2338;SDS011;1180;51.438;6.978;2022-11-20T10:25:49;17.33;;;10.90;;
2338;SDS011;1180;51.438;6.978;2022-11-20T10:31:15;15.33;;;10.67;;
2338;SDS011;1180;51.438;6.978;2022-11-20T10:33:50;20.70;;;13.00;;
2338;SDS011;1180;51.438;6.978;2022-11-20T10:36:19;29.47;;;17.77;;
2338;SDS011;1180;51.438;6.978;2022-11-20T10:38:58;19.70;;;14.20;;
2338;SDS011;1180;51.438;6.978;2022-11-20T10:41:35;19.77;;;13.17;;
2338;SDS011;1180;51.438;6.978;2022-11-20T10:44:09;17.00;;;12.93;;
2338;SDS011;1180;51.438;6.978;2022-11-20T10:47:00;17.53;;;14.27;;
2338;SDS011;1180;51.438;6.978;2022-11-20T10:49:25;22.23;;;15.87;;
2338;SDS011;1180;51.438;6.978;2022-11-20T11:00:32;17.03;;;12.37;;
2338;SDS011;1180;51.438;6.978;2022-11-20T11:02:57;26.43;;;17.63;;
2338;SDS011;1180;51.438;6.978;2022-11-20T11:05:41;18.93;;;13.93;;
2338;SDS011;1180;51.438;6.978;2022-11-20T11:08:16;25.50;;;17.47;;
2338;SDS011;1180;51.438;6.978;2022-11-20T11:10:47;23.63;;;15.30;;
2338;SDS011;1180;51.438;6.978;2022-11-20T11:13:22;24.90;;;16.10;;
2338;SDS011;1180;51.438;6.978;2022-11-20T11:15:49;27.80;;;16.83;;
2338;SDS011;1180;51.438;6.978;2022-11-20T11:18:25;18.13;;;13.90;;
2338;SDS011;1180;51.438;6.978;2022-11-20T11:20:55;15.80;;;11.90;;
2338;SDS011;1180;51.438;6.978;2022-11-20T11:23:35;25.07;;;16.87;;
2338;SDS011;1180;51.438;6.978;2022-11-20T11:26:02;24.60;;;16.30;;
2338;SDS011;1180;51.438;6.978;2022-11-20T11:28:30;20.63;;;14.87;;
2338;SDS011;1180;51.438;6.978;2022-11-20T11:30:55;21.07;;;14.70;;
2338;SDS011;1180;51.438;6.978;2022-11-20T11:33:25;30.83;;;20.33;;
2338;SDS011;1180;51.438;6.978;2022-11-20T11:41:04;21.03;;;14.23;;
2338;SDS011;1180;51.438;6.978;2022-11-20T11:43:32;17.70;;;13.00;;
2338;SDS011;1180;51.438;6.978;2022-11-20T11:46:29;16.03;;;12.30;;
2338;SDS011;1180;51.438;6.978;2022-11-20T11:51:35;15.40;;;10.93;;
2338;SDS011;1180;51.438;6.978;2022-11-20T11:55:07;16.33;;;12.03;;
2338;SDS011;1180;51.438;6.978;2022-11-20T11:57:10;22.53;;;14.93;;
2338;SDS011;1180;51.438;6.978;2022-11-20T11:59:49;17.80;;;13.27;;
2338;SDS011;1180;51.438;6.978;2022-11-20T12:05:09;16.80;;;12.83;;
2338;SDS011;1180;51.438;6.978;2022-11-20T12:07:43;19.10;;;14.37;;
2338;SDS011;1180;51.438;6.978;2022-11-20T12:10:22;14.43;;;11.80;;
2338;SDS011;1180;51.438;6.978;2022-11-20T12:12:54;17.90;;;12.87;;
2338;SDS011;1180;51.438;6.978;2022-11-20T12:15:27;16.20;;;11.70;;
2338;SDS011;1180;51.438;6.978;2022-11-20T12:17:54;17.60;;;12.97;;
2338;SDS011;1180;51.438;6.978;2022-11-20T12:20:20;16.47;;;11.90;;
2338;SDS011;1180;51.438;6.978;2022-11-20T12:22:53;14.90;;;11.40;;
2338;SDS011;1180;51.438;6.978;2022-11-20T12:25:30;17.83;;;12.67;;
2338;SDS011;1180;51.438;6.978;2022-11-20T12:36:15;17.33;;;12.73;;
2338;SDS011;1180;51.438;6.978;2022-11-20T12:39:05;16.33;;;12.77;;
2338;SDS011;1180;51.438;6.978;2022-11-20T12:53:07;16.10;;;13.13;;
2338;SDS011;1180;51.438;6.978;2022-11-20T13:01:30;22.57;;;13.90;;
2338;SDS011;1180;51.438;6.978;2022-11-20T13:06:47;18.80;;;12.33;;
2338;SDS011;1180;51.438;6.978;2022-11-20T13:09:15;18.40;;;13.50;;
2338;SDS011;1180;51.438;6.978;2022-11-20T13:14:31;19.67;;;14.07;;
2338;SDS011;1180;51.438;6.978;2022-11-20T13:18:00;18.30;;;13.07;;
2338;SDS011;1180;51.438;6.978;2022-11-20T13:20:25;17.20;;;13.87;;
2338;SDS011;1180;51.438;6.978;2022-11-20T13:22:53;19.20;;;13.57;;
2338;SDS011;1180;51.438;6.978;2022-11-20T13:25:32;19.20;;;13.90;;
2338;SDS011;1180;51.438;6.978;2022-11-20T13:28:01;19.50;;;14.10;;
2338;SDS011;1180;51.438;6.978;2022-11-20T13:30:51;20.10;;;12.90;;
2338;SDS011;1180;51.438;6.978;2022-11-20T13:33:31;20.07;;;14.97;;
2338;SDS011;1180;51.438;6.978;2022-11-20T13:38:27;17.03;;;12.90;;
2338;SDS011;1180;51.438;6.978;2022-11-20T13:40:57;22.43;;;14.80;;
2338;SDS011;1180;51.438;6.978;2022-11-20T13:43:40;21.40;;;15.53;;
2338;SDS011;1180;51.438;6.978;2022-11-20T13:46:07;19.83;;;14.70;;
2338;SDS011;1180;51.438;6.978;2022-11-20T13:48:44;21.83;;;15.80;;
2338;SDS011;1180;51.438;6.978;2022-11-20T14:00:29;23.17;;;16.37;;
2338;SDS011;1180;51.438;6.978;2022-11-20T14:02:35;19.03;;;13.67;;
2338;SDS011;1180;51.438;6.978;2022-11-20T14:05:01;23.50;;;17.67;;
2338;SDS011;1180;51.438;6.978;2022-11-20T14:07:32;19.07;;;14.73;;
2338;SDS011;1180;51.438;6.978;2022-11-20T14:10:02;20.17;;;16.23;;
2338;SDS011;1180;51.438;6.978;2022-11-20T14:12:29;20.10;;;15.10;;
2338;SDS011;1180;51.438;6.978;2022-11-20T14:14:56;22.47;;;15.43;;
2338;SDS011;1180;51.438;6.978;2022-11-20T14:19:53;21.73;;;16.43;;
2338;SDS011;1180;51.438;6.978;2022-11-20T14:22:23;20.20;;;15.43;;
2338;SDS011;1180;51.438;6.978;2022-11-20T14:27:38;22.10;;;14.40;;
2338;SDS011;1180;51.438;6.978;2022-11-20T14:30:11;25.87;;;16.30;;
2338;SDS011;1180;51.438;6.978;2022-11-20T14:32:40;23.63;;;14.97;;
2338;SDS011;1180;51.438;6.978;2022-11-20T14:35:07;21.17;;;15.53;;
2338;SDS011;1180;51.438;6.978;2022-11-20T14:37:37;23.90;;;16.13;;
2338;SDS011;1180;51.438;6.978;2022-11-20T14:40:20;21.63;;;14.80;;
2338;SDS011;1180;51.438;6.978;2022-11-20T14:42:46;24.80;;;17.23;;
2338;SDS011;1180;51.438;6.978;2022-11-20T14:45:11;24.93;;;16.30;;
2338;SDS011;1180;51.438;6.978;2022-11-20T14:47:40;19.57;;;15.60;;
2338;SDS011;1180;51.438;6.978;2022-11-20T14:50:08;21.50;;;15.53;;
2338;SDS011;1180;51.438;6.978;2022-11-20T14:52:38;23.03;;;16.40;;
2338;SDS011;1180;51.438;6.978;2022-11-20T14:55:24;23.90;;;16.80;;
2338;SDS011;1180;51.438;6.978;2022-11-20T14:58:01;24.70;;;16.00;;
2338;SDS011;1180;51.438;6.978;2022-11-20T15:00:29;22.87;;;16.70;;
2338;SDS011;1180;51.438;6.978;2022-11-20T15:02:55;28.03;;;18.47;;
2338;SDS011;1180;51.438;6.978;2022-11-20T15:05:25;25.47;;;16.63;;
2338;SDS011;1180;51.438;6.978;2022-11-20T15:08:10;22.93;;;16.30;;
2338;SDS011;1180;51.438;6.978;2022-11-20T15:10:35;23.80;;;16.33;;
2338;SDS011;1180;51.438;6.978;2022-11-20T15:13:10;26.57;;;18.07;;
2338;SDS011;1180;51.438;6.978;2022-11-20T15:21:03;22.47;;;17.00;;
2338;SDS011;1180;51.438;6.978;2022-11-20T15:23:35;19.80;;;15.07;;
2338;SDS011;1180;51.438;6.978;2022-11-20T15:26:00;25.17;;;17.27;;
2338;SDS011;1180;51.438;6.978;2022-11-20T15:28:33;23.43;;;16.07;;
2338;SDS011;1180;51.438;6.978;2022-11-20T15:31:00;21.83;;;16.30;;
2338;SDS011;1180;51.438;6.978;2022-11-20T15:33:27;23.57;;;17.03;;
2338;SDS011;1180;51.438;6.978;2022-11-20T15:35:52;21.43;;;16.23;;
2338;SDS011;1180;51.438;6.978;2022-11-20T15:38:18;22.97;;;17.90;;
2338;SDS011;1180;51.438;6.978;2022-11-20T15:40:43;22.30;;;16.67;;
2338;SDS011;1180;51.438;6.978;2022-11-20T15:43:08;23.00;;;17.37;;
2338;SDS011;1180;51.438;6.978;2022-11-20T15:45:44;22.37;;;17.63;;
2338;SDS011;1180;51.438;6.978;2022-11-20T15:48:15;24.03;;;17.53;;
2338;SDS011;1180;51.438;6.978;2022-11-20T15:50:56;26.17;;;18.10;;
2338;SDS011;1180;51.438;6.978;2022-11-20T15:53:27;20.00;;;14.90;;
2338;SDS011;1180;51.438;6.978;2022-11-20T15:55:53;21.80;;;15.93;;
2338;SDS011;1180;51.438;6.978;2022-11-20T15:58:18;24.73;;;17.80;;
2338;SDS011;1180;51.438;6.978;2022-11-20T16:00:44;25.30;;;17.80;;
2338;SDS011;1180;51.438;6.978;2022-11-20T16:03:10;22.77;;;15.97;;
2338;SDS011;1180;51.438;6.978;2022-11-20T16:05:36;25.17;;;17.13;;
2338;SDS011;1180;51.438;6.978;2022-11-20T16:08:02;22.88;;;19.13;;
2338;SDS011;1180;51.438;6.978;2022-11-20T16:10:27;22.73;;;18.60;;
2338;SDS011;1180;51.438;6.978;2022-11-20T16:12:53;24.60;;;17.00;;
2338;SDS011;1180;51.438;6.978;2022-11-20T16:15:37;25.07;;;16.67;;
2338;SDS011;1180;51.438;6.978;2022-11-20T16:18:12;27.90;;;18.10;;
2338;SDS011;1180;51.438;6.978;2022-11-20T16:20:45;26.03;;;17.77;;
2338;SDS011;1180;51.438;6.978;2022-11-20T16:23:12;26.77;;;18.20;;
2338;SDS011;1180;51.438;6.978;2022-11-20T16:25:38;28.53;;;18.03;;
2338;SDS011;1180;51.438;6.978;2022-11-20T16:28:03;31.90;;;19.97;;
2338;SDS011;1180;51.438;6.978;2022-11-20T16:30:30;31.63;;;18.27;;
2338;SDS011;1180;51.438;6.978;2022-11-20T16:32:56;29.03;;;17.87;;
2338;SDS011;1180;51.438;6.978;2022-11-20T16:35:22;43.33;;;25.80;;
2338;SDS011;1180;51.438;6.978;2022-11-20T16:37:47;35.63;;;21.50;;
2338;SDS011;1180;51.438;6.978;2022-11-20T16:40:12;26.80;;;17.47;;
2338;SDS011;1180;51.438;6.978;2022-11-20T16:42:38;20.43;;;14.07;;
2338;SDS011;1180;51.438;6.978;2022-11-20T16:45:03;17.60;;;14.00;;
2338;SDS011;1180;51.438;6.978;2022-11-20T16:47:33;23.10;;;15.37;;
2338;SDS011;1180;51.438;6.978;2022-11-20T16:49:59;20.10;;;13.30;;
2338;SDS011;1180;51.438;6.978;2022-11-20T16:52:24;17.73;;;12.70;;
2338;SDS011;1180;51.438;6.978;2022-11-20T16:54:50;15.87;;;11.57;;